Terminal Aerodrome Forecast
Issued by NWS

Current Version | Previous Version | Graphics & Text | Print | Product List | Glossary On
Versions: 1 2 3 4 5 6 7 8 9 10 11 12 13 14 15 16 17 18 19 20 21 22 23 24 25 26
149
FTUS41 KILN 242221 AAB
TAFLUK
TAF AMD
KLUK 242221Z 2422/2518 21012G22KT P6SM BKN060 BKN200
     FM250100 21014G24KT 6SM -SHRA VCTS OVC045CB
      TEMPO 2501/2504 4SM TSRA BR OVC028CB
     FM250600 28014G24KT P6SM VCSH BKN050
     FM250900 27014G24KT P6SM BKN050
     FM251200 26016G26KT P6SM OVC028=

USA.gov is the U.S. government's official web portal to all federal, state and local government web resources and services.